Time;durP1;ratioP1;P1;durP2;ratioP2;P2;SDS_P1;SDS_P2;PMS_P1;PMS_P2;Temp;Humidity;BMP_temperature;BMP_pressure;BME280_temperature;BME280_humidity;BME280_pressure;Samples;Min_cycle;Max_cycle;Signal;HPM_P1;HPM_P2
2021/03/30 00:01:16;;;;;;;9.10;2.90;;;;;;;;;;5059589;28;20711;-59
2021/03/30 00:03:44;;;;;;;4.32;2.35;;;;;;;;;;5062380;28;20796;-58
2021/03/30 00:06:10;;;;;;;10.13;2.72;;;;;;;;;;5045997;28;20166;-58
2021/03/30 00:08:36;;;;;;;9.13;2.78;;;;;;;;;;5056953;28;20036;-60
2021/03/30 00:11:02;;;;;;;10.63;3.05;;;;;;;;;;5057953;28;20036;-58
2021/03/30 00:13:29;;;;;;;6.50;2.63;;;;;;;;;;5057209;28;20040;-59
2021/03/30 00:15:58;;;;;;;10.85;2.85;;;;;;;;;;5058763;28;20033;-60
2021/03/30 00:18:26;;;;;;;6.97;2.58;;;;;;;;;;5055603;28;20036;-60
2021/03/30 00:20:52;;;;;;;9.57;3.03;;;;;;;;;;5061444;28;20035;-60
2021/03/30 00:23:17;;;;;;;7.57;3.33;;;;;;;;;;5043897;28;20028;-59
2021/03/30 00:25:43;;;;;;;12.98;3.72;;;;;;;;;;5056713;28;20032;-59
2021/03/30 00:28:12;;;;;;;9.57;3.70;;;;;;;;;;5057321;28;20430;-60
2021/03/30 00:30:39;;;;;;;10.35;3.05;;;;;;;;;;5057804;28;20066;-59
2021/03/30 00:33:07;;;;;;;6.65;3.38;;;;;;;;;;5058582;28;20036;-59
2021/03/30 00:35:32;;;;;;;10.10;2.60;;;;;;;;;;5059698;28;20028;-58
2021/03/30 00:37:58;;;;;;;8.15;2.38;;;;;;;;;;5059798;28;22100;-58
2021/03/30 00:40:23;;;;;;;4.50;2.85;;;;;;;;;;5053242;28;20040;-60
2021/03/30 00:42:52;;;;;;;13.93;2.88;;;;;;;;;;5056313;28;20714;-61
2021/03/30 00:45:18;;;;;;;15.05;3.35;;;;;;;;;;5057842;28;20029;-60
2021/03/30 00:47:47;;;;;;;13.65;3.15;;;;;;;;;;5073508;28;20066;-58
2021/03/30 00:50:16;;;;;;;13.77;3.65;;;;;;;;;;5053325;28;20060;-58
2021/03/30 00:52:45;;;;;;;12.52;4.30;;;;;;;;;;5055148;28;20136;-58
2021/03/30 00:55:13;;;;;;;10.05;3.03;;;;;;;;;;5057254;28;20032;-59
2021/03/30 00:57:41;;;;;;;10.40;3.53;;;;;;;;;;5056756;28;20039;-58
2021/03/30 01:00:16;;;;;;;11.30;3.30;;;;;;;;;;5061250;28;20115;-60
2021/03/30 01:02:42;;;;;;;7.75;3.30;;;;;;;;;;5043364;28;20044;-60
2021/03/30 01:05:08;;;;;;;10.50;3.70;;;;;;;;;;5062034;28;20086;-59
2021/03/30 01:07:38;;;;;;;12.50;3.35;;;;;;;;;;5055501;28;20031;-59
2021/03/30 01:10:12;;;;;;;8.52;2.72;;;;;;;;;;5057064;28;20050;-59
2021/03/30 01:12:40;;;;;;;10.90;3.50;;;;;;;;;;5056413;28;20059;-59
2021/03/30 01:15:14;;;;;;;13.35;2.95;;;;;;;;;;5056134;28;20036;-59
2021/03/30 01:17:54;;;;;;;13.65;3.42;;;;;;;;;;5057637;28;20117;-59
2021/03/30 01:20:36;;;;;;;10.05;3.40;;;;;;;;;;5055216;28;20043;-59
2021/03/30 01:23:20;;;;;;;13.05;3.53;;;;;;;;;;5056046;28;21123;-59
2021/03/30 01:25:53;;;;;;;12.48;3.30;;;;;;;;;;5057942;28;20034;-59
2021/03/30 01:28:27;;;;;;;16.52;3.17;;;;;;;;;;5056136;28;20044;-59
2021/03/30 01:30:56;;;;;;;6.95;2.92;;;;;;;;;;5057138;28;20032;-59
2021/03/30 01:33:27;;;;;;;12.35;3.20;;;;;;;;;;5058302;28;20040;-59
2021/03/30 01:35:54;;;;;;;10.60;3.53;;;;;;;;;;5056789;28;20043;-59
2021/03/30 01:38:20;;;;;;;13.07;3.65;;;;;;;;;;5060475;28;21208;-59
2021/03/30 01:40:49;;;;;;;8.65;2.90;;;;;;;;;;5053162;28;20048;-58
2021/03/30 01:43:18;;;;;;;13.38;2.83;;;;;;;;;;5057661;28;20025;-59
2021/03/30 01:45:53;;;;;;;8.85;3.13;;;;;;;;;;5042712;28;20043;-59
2021/03/30 01:48:21;;;;;;;7.95;3.92;;;;;;;;;;5062506;28;20035;-59
2021/03/30 01:50:52;;;;;;;7.68;3.08;;;;;;;;;;5039124;28;20046;-59
2021/03/30 01:53:21;;;;;;;8.93;3.35;;;;;;;;;;5057815;28;22103;-59
2021/03/30 01:55:52;;;;;;;15.27;3.03;;;;;;;;;;5056647;28;21122;-59
2021/03/30 01:58:20;;;;;;;11.05;3.28;;;;;;;;;;5057646;28;20072;-59
2021/03/30 02:00:49;;;;;;;5.82;3.42;;;;;;;;;;5057095;28;20173;-58
2021/03/30 02:03:17;;;;;;;7.55;2.88;;;;;;;;;;5055229;28;20027;-59
2021/03/30 02:05:43;;;;;;;10.80;3.30;;;;;;;;;;5057295;28;20183;-58
2021/03/30 02:08:14;;;;;;;5.28;2.45;;;;;;;;;;5057183;28;20031;-60
2021/03/30 02:10:53;;;;;;;12.38;3.15;;;;;;;;;;5054164;28;20042;-59
2021/03/30 02:15:47;;;;;;;14.50;3.70;;;;;;;;;;5056619;28;20896;-60
2021/03/30 02:18:14;;;;;;;15.93;2.80;;;;;;;;;;5057410;28;20093;-58
2021/03/30 02:20:44;;;;;;;6.93;2.83;;;;;;;;;;5056850;28;22061;-58
2021/03/30 02:23:17;;;;;;;8.77;3.15;;;;;;;;;;5055866;28;20040;-59
2021/03/30 02:25:47;;;;;;;11.27;2.72;;;;;;;;;;5056206;28;20128;-59
2021/03/30 02:28:21;;;;;;;13.15;3.35;;;;;;;;;;5043804;28;20120;-59
2021/03/30 02:30:50;;;;;;;7.57;3.10;;;;;;;;;;5045591;28;20128;-58
2021/03/30 02:33:24;;;;;;;12.25;3.70;;;;;;;;;;5061321;28;20086;-59
2021/03/30 02:35:50;;;;;;;8.57;2.80;;;;;;;;;;5046086;28;20117;-59
2021/03/30 02:38:16;;;;;;;10.27;2.85;;;;;;;;;;5059341;28;20020;-60
2021/03/30 02:40:47;;;;;;;12.82;3.17;;;;;;;;;;5059540;28;20040;-59
2021/03/30 02:43:15;;;;;;;9.50;3.47;;;;;;;;;;5057780;28;20020;-60
2021/03/30 02:45:42;;;;;;;7.38;2.83;;;;;;;;;;5059113;28;20040;-60
2021/03/30 02:48:10;;;;;;;13.65;3.50;;;;;;;;;;5060248;28;20609;-59
2021/03/30 02:50:36;;;;;;;10.73;3.33;;;;;;;;;;5044783;28;20042;-59
2021/03/30 02:53:03;;;;;;;18.77;3.60;;;;;;;;;;5059716;28;20578;-58
2021/03/30 02:55:30;;;;;;;10.15;3.08;;;;;;;;;;5044193;28;20032;-58
2021/03/30 02:57:58;;;;;;;9.15;3.60;;;;;;;;;;5058725;28;20432;-59
2021/03/30 03:00:26;;;;;;;7.38;2.83;;;;;;;;;;5057577;28;20036;-59
2021/03/30 03:02:55;;;;;;;15.80;3.10;;;;;;;;;;5061083;28;20029;-59
2021/03/30 03:05:21;;;;;;;11.57;3.58;;;;;;;;;;5058268;28;20593;-59
2021/03/30 03:07:48;;;;;;;9.00;3.05;;;;;;;;;;5061626;28;21068;-59
2021/03/30 03:10:17;;;;;;;9.32;4.15;;;;;;;;;;5058282;28;20051;-58
2021/03/30 03:12:45;;;;;;;13.57;3.50;;;;;;;;;;5075217;27;20072;-57
2021/03/30 03:15:14;;;;;;;10.75;2.92;;;;;;;;;;5059565;28;20044;-58
2021/03/30 03:17:40;;;;;;;12.00;2.90;;;;;;;;;;5063545;28;20036;-58
2021/03/30 03:20:07;;;;;;;21.42;3.75;;;;;;;;;;5059083;28;20033;-59
2021/03/30 03:22:33;;;;;;;7.40;3.25;;;;;;;;;;5045846;28;20073;-58
2021/03/30 03:25:05;;;;;;;14.18;3.25;;;;;;;;;;5059849;28;20086;-59
2021/03/30 03:27:32;;;;;;;6.78;3.33;;;;;;;;;;5057210;28;20032;-58
2021/03/30 03:30:10;;;;;;;8.43;2.92;;;;;;;;;;5064932;28;20093;-58
2021/03/30 03:32:38;;;;;;;11.50;3.08;;;;;;;;;;5060520;28;20043;-58
2021/03/30 03:35:10;;;;;;;6.32;3.55;;;;;;;;;;5063208;28;20036;-59
2021/03/30 03:37:46;;;;;;;12.20;3.70;;;;;;;;;;5059823;28;20785;-59
2021/03/30 03:40:14;;;;;;;12.02;4.13;;;;;;;;;;5054942;28;20121;-59
2021/03/30 03:42:43;;;;;;;7.88;3.67;;;;;;;;;;5059219;28;20490;-59
2021/03/30 03:45:09;;;;;;;13.07;3.50;;;;;;;;;;5058290;28;20020;-59
2021/03/30 03:47:37;;;;;;;9.43;3.40;;;;;;;;;;5059025;28;20028;-59
2021/03/30 03:50:05;;;;;;;7.68;3.13;;;;;;;;;;5057341;28;20460;-59
2021/03/30 03:52:34;;;;;;;8.93;3.22;;;;;;;;;;5056674;28;20036;-59
2021/03/30 03:55:04;;;;;;;6.18;3.50;;;;;;;;;;5056778;28;20111;-59
2021/03/30 03:57:44;;;;;;;19.10;4.05;;;;;;;;;;5058475;28;20111;-59
2021/03/30 04:00:12;;;;;;;5.35;2.97;;;;;;;;;;5058248;28;20035;-58
2021/03/30 04:02:51;;;;;;;9.15;3.40;;;;;;;;;;5046344;28;20052;-59
2021/03/30 04:05:23;;;;;;;10.63;3.80;;;;;;;;;;5056944;28;20040;-59
2021/03/30 04:07:55;;;;;;;12.05;3.15;;;;;;;;;;5063656;28;20960;-59
2021/03/30 04:10:24;;;;;;;7.38;3.17;;;;;;;;;;5059230;28;20032;-59
2021/03/30 04:12:53;;;;;;;9.63;4.20;;;;;;;;;;5064422;28;20033;-60
2021/03/30 04:15:21;;;;;;;10.35;3.47;;;;;;;;;;5056338;28;20033;-59
2021/03/30 04:17:47;;;;;;;9.68;3.72;;;;;;;;;;5060909;28;20044;-60
2021/03/30 04:20:16;;;;;;;8.25;3.53;;;;;;;;;;5057319;28;20059;-61
2021/03/30 04:22:44;;;;;;;10.68;4.88;;;;;;;;;;5057548;28;20043;-59
2021/03/30 04:25:10;;;;;;;6.25;4.10;;;;;;;;;;5042066;28;20032;-59
2021/03/30 04:27:35;;;;;;;8.35;3.78;;;;;;;;;;5058491;28;20036;-60
2021/03/30 04:30:04;;;;;;;13.82;3.95;;;;;;;;;;5055048;28;20028;-59
2021/03/30 04:32:34;;;;;;;6.82;3.85;;;;;;;;;;5056041;28;20062;-58
2021/03/30 04:35:04;;;;;;;9.88;3.35;;;;;;;;;;5055859;28;20035;-60
2021/03/30 04:37:32;;;;;;;13.93;4.47;;;;;;;;;;5042518;28;20094;-59
2021/03/30 04:39:57;;;;;;;18.27;4.82;;;;;;;;;;5039388;28;20039;-60
2021/03/30 04:42:25;;;;;;;9.55;4.82;;;;;;;;;;5055056;28;20025;-59
2021/03/30 04:44:54;;;;;;;9.35;3.88;;;;;;;;;;5058387;28;20541;-59
2021/03/30 04:47:23;;;;;;;10.20;4.28;;;;;;;;;;5039553;28;20028;-60
2021/03/30 04:49:49;;;;;;;10.50;4.55;;;;;;;;;;5056519;28;20032;-60
2021/03/30 04:52:15;;;;;;;9.55;4.65;;;;;;;;;;5057467;28;20109;-59
2021/03/30 04:54:40;;;;;;;27.63;5.18;;;;;;;;;;5043500;28;21001;-59
2021/03/30 04:57:11;;;;;;;12.35;6.07;;;;;;;;;;5057808;28;20189;-59
2021/03/30 04:59:39;;;;;;;11.05;4.93;;;;;;;;;;5052224;28;20427;-59
2021/03/30 05:02:07;;;;;;;11.70;4.60;;;;;;;;;;5072612;28;20028;-60
2021/03/30 05:04:32;;;;;;;8.85;4.80;;;;;;;;;;5055109;28;20051;-59
2021/03/30 05:06:58;;;;;;;13.50;5.03;;;;;;;;;;5055017;28;21074;-59
2021/03/30 05:09:24;;;;;;;15.88;5.75;;;;;;;;;;5056995;28;20041;-60
2021/03/30 05:11:52;;;;;;;14.02;5.40;;;;;;;;;;5056215;28;20122;-61
2021/03/30 05:14:19;;;;;;;12.10;4.78;;;;;;;;;;5056648;28;20032;-61
2021/03/30 05:16:45;;;;;;;12.50;5.20;;;;;;;;;;5057971;28;20767;-60
2021/03/30 05:19:11;;;;;;;16.27;5.85;;;;;;;;;;5056660;28;20032;-59
2021/03/30 05:21:38;;;;;;;11.48;4.90;;;;;;;;;;5057204;28;20039;-59
2021/03/30 05:24:07;;;;;;;14.68;5.32;;;;;;;;;;5057068;28;20044;-59
2021/03/30 05:26:34;;;;;;;14.00;5.47;;;;;;;;;;5058491;28;20035;-59
2021/03/30 05:29:00;;;;;;;16.38;5.15;;;;;;;;;;5057037;28;20032;-58
2021/03/30 05:31:30;;;;;;;13.80;5.60;;;;;;;;;;5045035;28;20032;-61
2021/03/30 05:33:58;;;;;;;13.25;5.38;;;;;;;;;;5055411;28;20060;-60
2021/03/30 05:36:26;;;;;;;9.98;4.97;;;;;;;;;;5059499;28;20032;-59
2021/03/30 05:38:56;;;;;;;17.17;6.32;;;;;;;;;;5037987;28;20050;-60
2021/03/30 05:41:22;;;;;;;12.80;5.70;;;;;;;;;;5056365;28;20040;-60
2021/03/30 05:43:47;;;;;;;14.55;5.93;;;;;;;;;;5049896;28;20050;-59
2021/03/30 05:46:17;;;;;;;11.27;5.03;;;;;;;;;;5057156;28;20464;-59
2021/03/30 05:48:47;;;;;;;14.70;5.50;;;;;;;;;;5054381;28;20094;-59
2021/03/30 05:51:13;;;;;;;19.33;5.78;;;;;;;;;;5053562;28;20020;-59
2021/03/30 05:53:39;;;;;;;16.58;5.47;;;;;;;;;;5042046;28;20536;-59
2021/03/30 05:56:07;;;;;;;15.68;5.15;;;;;;;;;;5054394;28;20070;-59
2021/03/30 05:58:33;;;;;;;10.38;4.88;;;;;;;;;;5046625;28;20036;-59
2021/03/30 06:01:05;;;;;;;14.63;5.53;;;;;;;;;;5058268;28;20048;-59
2021/03/30 06:03:32;;;;;;;11.05;5.10;;;;;;;;;;5057722;28;20048;-60
2021/03/30 06:06:01;;;;;;;9.35;4.78;;;;;;;;;;5067335;28;20028;-60
2021/03/30 06:08:30;;;;;;;12.60;5.10;;;;;;;;;;5058542;28;20140;-58
2021/03/30 06:10:57;;;;;;;12.25;4.30;;;;;;;;;;5060452;28;20492;-60
2021/03/30 06:13:42;;;;;;;9.15;4.07;;;;;;;;;;5073351;28;20567;-59
2021/03/30 06:16:29;;;;;;;11.93;4.93;;;;;;;;;;5063270;28;20039;-58
2021/03/30 06:19:05;;;;;;;9.70;4.07;;;;;;;;;;5058331;28;20051;-59
2021/03/30 06:21:31;;;;;;;10.77;4.60;;;;;;;;;;5056741;28;20133;-59
2021/03/30 06:23:59;;;;;;;8.63;3.75;;;;;;;;;;5054669;28;22201;-58
2021/03/30 06:26:28;;;;;;;17.45;4.75;;;;;;;;;;5055440;28;20040;-59
2021/03/30 06:28:55;;;;;;;9.90;4.43;;;;;;;;;;5038755;28;20044;-59
2021/03/30 06:31:21;;;;;;;7.65;4.00;;;;;;;;;;5058017;28;20036;-59
2021/03/30 06:33:51;;;;;;;10.60;4.32;;;;;;;;;;5043263;28;20145;-58
2021/03/30 06:36:21;;;;;;;15.05;4.38;;;;;;;;;;5056263;28;20093;-59
2021/03/30 06:38:47;;;;;;;8.18;3.75;;;;;;;;;;5056984;28;20044;-60
2021/03/30 06:41:31;;;;;;;9.82;3.70;;;;;;;;;;5057770;28;21632;-59
2021/03/30 06:46:57;;;;;;;10.85;3.95;;;;;;;;;;5058501;28;20036;-59
2021/03/30 06:49:27;;;;;;;8.40;3.28;;;;;;;;;;5055649;28;20098;-58
2021/03/30 06:51:53;;;;;;;7.95;3.78;;;;;;;;;;5057381;28;20028;-58
2021/03/30 06:54:19;;;;;;;15.23;4.00;;;;;;;;;;5054050;28;20029;-59
2021/03/30 06:56:45;;;;;;;13.73;4.22;;;;;;;;;;5037428;28;20063;-60
2021/03/30 06:59:11;;;;;;;11.82;3.72;;;;;;;;;;5057316;28;20479;-58
2021/03/30 07:01:38;;;;;;;14.70;4.57;;;;;;;;;;5059939;28;20037;-59
2021/03/30 07:04:09;;;;;;;10.90;3.30;;;;;;;;;;5059155;28;20024;-60
2021/03/30 07:06:36;;;;;;;13.98;3.63;;;;;;;;;;5055568;28;20015;-58
2021/03/30 07:09:02;;;;;;;12.45;4.03;;;;;;;;;;5056276;28;20024;-60
2021/03/30 07:11:27;;;;;;;7.03;3.65;;;;;;;;;;5046872;28;20575;-60
2021/03/30 07:13:53;;;;;;;11.57;3.65;;;;;;;;;;5056932;28;20028;-59
2021/03/30 07:16:22;;;;;;;11.23;3.63;;;;;;;;;;5054601;28;20027;-59
2021/03/30 07:18:49;;;;;;;12.05;3.55;;;;;;;;;;5074175;28;20425;-58
2021/03/30 07:21:21;;;;;;;11.65;3.55;;;;;;;;;;5058771;28;20024;-60
2021/03/30 07:23:53;;;;;;;9.48;3.50;;;;;;;;;;5074783;28;20028;-59
2021/03/30 07:26:20;;;;;;;9.98;3.75;;;;;;;;;;5044060;28;20559;-60
2021/03/30 07:28:50;;;;;;;11.63;3.67;;;;;;;;;;5054450;28;20020;-60
2021/03/30 07:31:19;;;;;;;11.45;3.22;;;;;;;;;;5044884;28;20122;-59
2021/03/30 07:34:04;;;;;;;13.10;4.18;;;;;;;;;;5058131;28;20031;-59
2021/03/30 07:36:39;;;;;;;13.88;3.60;;;;;;;;;;5057479;28;20495;-59
2021/03/30 07:39:06;;;;;;;10.32;3.70;;;;;;;;;;5055596;28;20047;-59
2021/03/30 07:41:32;;;;;;;13.07;3.78;;;;;;;;;;5056379;28;20032;-59
2021/03/30 07:44:00;;;;;;;8.63;3.15;;;;;;;;;;5056092;28;20032;-59
2021/03/30 07:46:26;;;;;;;13.95;3.50;;;;;;;;;;5059770;28;20194;-60
2021/03/30 07:48:52;;;;;;;7.60;2.95;;;;;;;;;;5059143;28;21277;-60
2021/03/30 07:51:23;;;;;;;13.77;4.00;;;;;;;;;;5058962;28;20029;-59
2021/03/30 07:53:53;;;;;;;9.30;3.70;;;;;;;;;;5053362;28;21861;-60
2021/03/30 07:56:23;;;;;;;13.73;2.75;;;;;;;;;;5053999;28;20027;-59
2021/03/30 07:58:53;;;;;;;9.73;3.17;;;;;;;;;;5052034;28;20124;-59
2021/03/30 08:01:22;;;;;;;11.90;3.78;;;;;;;;;;5071716;27;20033;-59
2021/03/30 08:03:49;;;;;;;8.88;3.03;;;;;;;;;;5055653;28;20028;-59
2021/03/30 08:06:24;;;;;;;10.63;3.30;;;;;;;;;;5057754;28;20094;-59
2021/03/30 08:08:50;;;;;;;14.45;3.42;;;;;;;;;;5059230;28;20031;-59
2021/03/30 08:11:35;;;;;;;7.20;3.08;;;;;;;;;;5054914;28;20510;-61
2021/03/30 08:14:01;;;;;;;9.13;3.25;;;;;;;;;;5043539;28;20039;-58
2021/03/30 08:16:29;;;;;;;14.57;3.58;;;;;;;;;;5056867;28;20043;-60
2021/03/30 08:18:59;;;;;;;12.18;3.35;;;;;;;;;;5057617;28;20093;-59
2021/03/30 08:21:25;;;;;;;8.15;3.38;;;;;;;;;;5053688;28;20025;-60
2021/03/30 08:23:55;;;;;;;10.13;3.08;;;;;;;;;;5043869;28;20396;-58
2021/03/30 08:26:30;;;;;;;10.13;2.97;;;;;;;;;;5055859;28;20036;-59
2021/03/30 08:29:00;;;;;;;11.43;3.45;;;;;;;;;;5056990;28;20030;-62
2021/03/30 08:31:34;;;;;;;9.68;2.78;;;;;;;;;;5055160;28;20086;-59
2021/03/30 08:34:02;;;;;;;11.60;2.97;;;;;;;;;;5059927;28;20021;-60
2021/03/30 08:36:49;;;;;;;8.43;3.53;;;;;;;;;;5059057;28;20028;-58
2021/03/30 08:39:17;;;;;;;9.38;2.92;;;;;;;;;;5058075;28;21963;-59
2021/03/30 08:41:42;;;;;;;8.43;3.15;;;;;;;;;;5054072;28;20044;-60
2021/03/30 08:44:14;;;;;;;8.18;3.22;;;;;;;;;;5057902;28;20039;-62
2021/03/30 08:46:41;;;;;;;14.77;3.35;;;;;;;;;;5057033;28;20024;-60
2021/03/30 08:49:22;;;;;;;12.63;2.85;;;;;;;;;;5055277;28;20032;-63
2021/03/30 08:51:53;;;;;;;6.38;3.60;;;;;;;;;;5061539;28;20024;-59
2021/03/30 08:54:22;;;;;;;9.48;3.40;;;;;;;;;;5056627;28;20028;-60
2021/03/30 08:56:48;;;;;;;14.38;3.25;;;;;;;;;;5056746;28;20032;-61
2021/03/30 08:59:18;;;;;;;11.00;3.00;;;;;;;;;;5059057;28;20026;-60
2021/03/30 09:01:45;;;;;;;7.72;2.63;;;;;;;;;;5044622;28;20028;-60
2021/03/30 09:04:11;;;;;;;15.02;3.22;;;;;;;;;;5055646;28;20450;-61
2021/03/30 09:06:37;;;;;;;7.38;2.90;;;;;;;;;;5057849;28;20035;-59
2021/03/30 09:09:04;;;;;;;7.15;2.85;;;;;;;;;;5057673;28;20110;-60
2021/03/30 09:11:35;;;;;;;8.40;3.58;;;;;;;;;;5045488;28;20078;-61
2021/03/30 09:14:05;;;;;;;14.55;3.65;;;;;;;;;;5053443;28;20160;-60
2021/03/30 09:16:30;;;;;;;12.00;3.63;;;;;;;;;;5053489;28;20160;-60
2021/03/30 09:19:15;;;;;;;9.85;3.00;;;;;;;;;;5061156;28;20031;-62
2021/03/30 09:21:42;;;;;;;6.15;3.22;;;;;;;;;;5055361;28;20040;-60
2021/03/30 09:24:16;;;;;;;11.82;3.67;;;;;;;;;;5044863;28;20048;-61
2021/03/30 09:26:42;;;;;;;8.33;3.50;;;;;;;;;;5058422;28;20752;-61
2021/03/30 09:29:18;;;;;;;7.72;3.35;;;;;;;;;;5054998;28;20051;-60
2021/03/30 09:31:45;;;;;;;9.85;3.40;;;;;;;;;;5056598;28;20036;-60
2021/03/30 09:34:10;;;;;;;11.88;3.40;;;;;;;;;;5060650;28;20047;-59
2021/03/30 09:36:47;;;;;;;6.57;2.80;;;;;;;;;;5060296;28;20456;-58
2021/03/30 09:39:19;;;;;;;7.47;3.00;;;;;;;;;;5064198;28;20044;-60
2021/03/30 09:41:47;;;;;;;11.43;3.33;;;;;;;;;;5059571;28;20024;-60
2021/03/30 09:44:22;;;;;;;12.40;3.15;;;;;;;;;;5042462;28;20029;-60
2021/03/30 09:46:51;;;;;;;10.57;3.58;;;;;;;;;;5059528;28;20028;-60
2021/03/30 09:49:19;;;;;;;5.03;2.83;;;;;;;;;;5059682;28;20040;-60
2021/03/30 09:51:45;;;;;;;16.05;4.47;;;;;;;;;;5063616;28;20040;-60
2021/03/30 09:54:24;;;;;;;9.27;3.65;;;;;;;;;;5058940;28;20031;-60
2021/03/30 09:56:55;;;;;;;7.75;3.38;;;;;;;;;;5063420;28;20028;-60
2021/03/30 09:59:21;;;;;;;13.27;3.45;;;;;;;;;;5060456;28;20663;-59
2021/03/30 10:01:52;;;;;;;12.73;3.20;;;;;;;;;;5061455;28;20820;-60
2021/03/30 10:04:20;;;;;;;7.85;3.10;;;;;;;;;;5076067;28;20163;-58
2021/03/30 10:06:46;;;;;;;13.55;3.30;;;;;;;;;;5060914;28;20670;-58
2021/03/30 10:09:11;;;;;;;9.75;3.25;;;;;;;;;;5060139;28;20881;-58
2021/03/30 10:11:37;;;;;;;9.50;2.95;;;;;;;;;;5057949;28;20033;-59
2021/03/30 10:14:23;;;;;;;10.60;3.60;;;;;;;;;;5060322;28;20047;-59
2021/03/30 10:16:50;;;;;;;9.25;3.15;;;;;;;;;;5064423;28;20031;-58
2021/03/30 10:19:15;;;;;;;8.77;3.53;;;;;;;;;;5058386;28;20032;-58
2021/03/30 10:21:41;;;;;;;11.73;3.33;;;;;;;;;;5058940;28;20108;-58
2021/03/30 10:24:11;;;;;;;8.45;2.80;;;;;;;;;;5062020;28;20028;-58
2021/03/30 10:26:38;;;;;;;12.32;2.92;;;;;;;;;;5060435;28;20040;-60
2021/03/30 10:29:06;;;;;;;8.13;2.58;;;;;;;;;;5057660;28;20037;-59
2021/03/30 10:31:49;;;;;;;9.05;2.80;;;;;;;;;;5057552;28;20033;-59
2021/03/30 10:34:29;;;;;;;8.65;2.50;;;;;;;;;;5059839;28;20062;-59
2021/03/30 10:36:56;;;;;;;7.72;2.85;;;;;;;;;;5059490;28;20161;-58
2021/03/30 10:39:29;;;;;;;11.55;2.70;;;;;;;;;;5056507;28;20043;-58
2021/03/30 10:42:24;;;;;;;10.20;3.20;;;;;;;;;;5057796;28;20035;-59
2021/03/30 10:44:57;;;;;;;7.65;2.80;;;;;;;;;;5052878;28;20044;-59
2021/03/30 10:47:23;;;;;;;5.03;2.10;;;;;;;;;;5059781;28;20028;-58
2021/03/30 10:49:53;;;;;;;12.48;2.65;;;;;;;;;;5045906;28;20040;-59
2021/03/30 10:52:26;;;;;;;9.40;3.10;;;;;;;;;;5057928;28;20032;-58
2021/03/30 10:54:55;;;;;;;14.33;2.80;;;;;;;;;;5044349;28;20039;-58
2021/03/30 10:57:26;;;;;;;6.18;2.45;;;;;;;;;;5059550;28;20544;-58
2021/03/30 10:59:57;;;;;;;8.63;2.72;;;;;;;;;;5059509;28;20024;-59
2021/03/30 11:02:23;;;;;;;6.13;2.28;;;;;;;;;;5060545;28;20159;-59
2021/03/30 11:04:51;;;;;;;8.90;2.42;;;;;;;;;;5060262;28;20035;-59
2021/03/30 11:07:19;;;;;;;10.07;2.83;;;;;;;;;;5039501;28;20120;-59
2021/03/30 11:09:45;;;;;;;6.47;2.60;;;;;;;;;;5058381;28;20147;-59
2021/03/30 11:12:11;;;;;;;8.00;2.95;;;;;;;;;;5056216;28;20032;-60
2021/03/30 11:14:39;;;;;;;11.80;2.78;;;;;;;;;;5064109;28;20041;-59
2021/03/30 11:17:04;;;;;;;4.97;2.58;;;;;;;;;;5057726;28;20365;-59
2021/03/30 11:19:30;;;;;;;9.63;2.67;;;;;;;;;;5057044;28;20888;-59
2021/03/30 11:22:06;;;;;;;6.88;2.45;;;;;;;;;;5059505;28;20047;-58
2021/03/30 11:24:39;;;;;;;7.00;2.65;;;;;;;;;;5056466;28;20036;-59
2021/03/30 11:27:08;;;;;;;11.77;3.20;;;;;;;;;;5057803;28;20101;-58
2021/03/30 11:32:26;;;;;;;9.43;3.55;;;;;;;;;;5056216;28;20123;-59
2021/03/30 11:34:59;;;;;;;;;;;;;;;;;;5056651;28;20104;-59
2021/03/30 11:39:54;;;;;;;8.32;3.67;;;;;;;;;;5056050;28;20043;-58
2021/03/30 11:42:19;;;;;;;7.60;2.80;;;;;;;;;;5072675;28;20058;-58
2021/03/30 11:44:45;;;;;;;7.90;2.95;;;;;;;;;;5073012;28;20029;-58
2021/03/30 11:47:10;;;;;;;6.95;3.13;;;;;;;;;;5040638;28;20049;-58
2021/03/30 11:49:36;;;;;;;12.80;2.95;;;;;;;;;;5055400;28;20028;-59
2021/03/30 11:52:02;;;;;;;11.95;3.25;;;;;;;;;;5058127;28;20032;-59
2021/03/30 11:54:28;;;;;;;9.75;2.97;;;;;;;;;;5056741;28;20641;-58
2021/03/30 11:56:54;;;;;;;9.00;2.97;;;;;;;;;;5055642;28;20084;-58
2021/03/30 11:59:20;;;;;;;7.47;2.53;;;;;;;;;;5058098;28;20105;-58
2021/03/30 12:01:48;;;;;;;6.55;2.35;;;;;;;;;;5040841;28;20038;-58
2021/03/30 12:04:16;;;;;;;4.93;2.58;;;;;;;;;;5057904;28;20086;-59
2021/03/30 12:06:42;;;;;;;6.50;2.40;;;;;;;;;;5061354;28;20040;-58
2021/03/30 12:09:07;;;;;;;6.50;2.80;;;;;;;;;;5071542;27;20551;-59
2021/03/30 12:11:44;;;;;;;6.65;2.95;;;;;;;;;;5047470;28;20499;-59
2021/03/30 12:14:10;;;;;;;6.22;2.53;;;;;;;;;;5057299;28;20027;-58
2021/03/30 12:16:36;;;;;;;7.57;2.20;;;;;;;;;;5054607;28;20081;-58
2021/03/30 12:19:02;;;;;;;5.43;2.28;;;;;;;;;;5040602;28;20170;-58
2021/03/30 12:21:30;;;;;;;5.72;2.20;;;;;;;;;;5056698;28;20082;-58
2021/03/30 12:23:56;;;;;;;6.18;2.35;;;;;;;;;;5059572;28;20024;-58
2021/03/30 12:26:21;;;;;;;5.28;2.13;;;;;;;;;;5054449;28;20521;-58
2021/03/30 12:28:50;;;;;;;5.45;2.13;;;;;;;;;;5052651;28;20036;-57
2021/03/30 12:31:15;;;;;;;7.88;1.95;;;;;;;;;;5057853;28;20665;-57
2021/03/30 12:33:41;;;;;;;6.85;2.67;;;;;;;;;;5051714;28;20040;-57
2021/03/30 12:36:07;;;;;;;6.93;2.10;;;;;;;;;;5057481;28;20029;-59
2021/03/30 12:38:33;;;;;;;5.97;2.40;;;;;;;;;;5053025;28;20044;-58
2021/03/30 12:40:59;;;;;;;6.63;1.83;;;;;;;;;;5055612;28;20460;-58
2021/03/30 12:43:27;;;;;;;3.15;1.98;;;;;;;;;;5057008;28;20038;-59
2021/03/30 12:45:53;;;;;;;3.30;1.98;;;;;;;;;;5055529;28;20036;-59
2021/03/30 12:48:18;;;;;;;3.75;1.90;;;;;;;;;;5054597;28;20043;-59
2021/03/30 12:50:43;;;;;;;7.72;2.00;;;;;;;;;;5055753;28;20038;-59
2021/03/30 12:53:12;;;;;;;4.50;1.70;;;;;;;;;;5054394;28;20043;-58
2021/03/30 12:55:39;;;;;;;9.20;2.50;;;;;;;;;;5057112;28;20101;-59
2021/03/30 12:58:05;;;;;;;5.80;2.05;;;;;;;;;;5072476;28;20040;-58
2021/03/30 13:00:30;;;;;;;4.63;2.05;;;;;;;;;;5059021;28;20032;-59
2021/03/30 13:03:00;;;;;;;4.55;1.70;;;;;;;;;;5058685;28;20032;-57
2021/03/30 13:05:26;;;;;;;3.53;2.25;;;;;;;;;;5056984;28;20076;-59
2021/03/30 13:07:51;;;;;;;3.53;2.25;;;;;;;;;;5056488;28;21917;-59
2021/03/30 13:10:17;;;;;;;7.28;2.05;;;;;;;;;;5059232;28;21066;-59
2021/03/30 13:12:43;;;;;;;5.57;2.20;;;;;;;;;;5056275;28;21623;-57
2021/03/30 13:15:08;;;;;;;4.47;2.30;;;;;;;;;;5055327;28;20055;-56
2021/03/30 13:17:37;;;;;;;2.85;2.10;;;;;;;;;;5056430;28;20176;-57
2021/03/30 13:20:10;;;;;;;5.10;2.35;;;;;;;;;;5054837;28;20024;-57
2021/03/30 13:22:36;;;;;;;4.00;2.70;;;;;;;;;;5058437;28;20039;-58
2021/03/30 13:25:03;;;;;;;7.32;3.00;;;;;;;;;;5056793;28;20036;-58
2021/03/30 13:27:28;;;;;;;5.13;2.97;;;;;;;;;;5055584;28;20070;-59
2021/03/30 13:29:59;;;;;;;6.13;3.17;;;;;;;;;;5061544;28;20028;-58
2021/03/30 13:32:24;;;;;;;6.38;3.13;;;;;;;;;;5055575;28;20028;-58
2021/03/30 13:34:55;;;;;;;7.65;3.58;;;;;;;;;;5055004;28;20024;-58
2021/03/30 13:37:24;;;;;;;9.15;3.00;;;;;;;;;;5056628;28;20480;-57
2021/03/30 13:39:49;;;;;;;4.05;2.38;;;;;;;;;;5061372;28;20381;-58
2021/03/30 13:42:15;;;;;;;5.18;1.90;;;;;;;;;;5056951;28;20039;-57
2021/03/30 13:44:41;;;;;;;4.03;2.58;;;;;;;;;;5055793;28;20065;-57
2021/03/30 13:47:09;;;;;;;2.70;1.73;;;;;;;;;;5055590;28;20169;-58
2021/03/30 13:49:36;;;;;;;6.15;1.92;;;;;;;;;;5055811;28;20139;-58
2021/03/30 13:52:05;;;;;;;6.90;2.30;;;;;;;;;;5053803;28;20144;-58
2021/03/30 13:54:31;;;;;;;5.40;2.35;;;;;;;;;;5058156;28;20017;-58
2021/03/30 13:56:56;;;;;;;4.05;1.77;;;;;;;;;;5054840;28;20822;-59
2021/03/30 13:59:27;;;;;;;3.20;2.03;;;;;;;;;;5054810;28;20043;-58
2021/03/30 14:01:52;;;;;;;3.08;1.50;;;;;;;;;;5054662;28;20126;-58
2021/03/30 14:04:19;;;;;;;5.05;1.63;;;;;;;;;;5059329;28;20028;-58
2021/03/30 14:06:48;;;;;;;5.47;2.08;;;;;;;;;;5057060;28;20032;-57
2021/03/30 14:09:14;;;;;;;4.15;1.85;;;;;;;;;;5055744;28;20086;-58
2021/03/30 14:11:57;;;;;;;5.03;2.10;;;;;;;;;;5054898;28;20024;-57
2021/03/30 14:14:33;;;;;;;3.65;2.15;;;;;;;;;;5056788;28;20119;-57
2021/03/30 14:17:08;;;;;;;3.17;1.90;;;;;;;;;;5044408;28;20028;-57
2021/03/30 14:19:45;;;;;;;3.05;1.52;;;;;;;;;;5042203;28;20035;-57
2021/03/30 14:22:16;;;;;;;4.65;1.90;;;;;;;;;;5061371;28;20123;-57
2021/03/30 14:25:02;;;;;;;5.45;1.80;;;;;;;;;;5039720;28;20076;-57
2021/03/30 14:27:29;;;;;;;3.47;2.17;;;;;;;;;;5061609;28;21763;-58
2021/03/30 14:29:57;;;;;;;4.47;2.00;;;;;;;;;;5060152;28;20111;-58
2021/03/30 14:32:33;;;;;;;3.38;1.70;;;;;;;;;;5047071;28;20036;-58
2021/03/30 14:34:59;;;;;;;7.93;2.30;;;;;;;;;;5060881;28;20032;-58
2021/03/30 14:37:29;;;;;;;6.82;2.20;;;;;;;;;;5060250;28;20017;-58
2021/03/30 14:39:59;;;;;;;2.15;1.73;;;;;;;;;;5059274;28;20048;-58
2021/03/30 14:42:26;;;;;;;3.85;2.17;;;;;;;;;;5059417;28;20082;-58
2021/03/30 14:52:58;;;;;;;7.57;2.45;;;;;;;;;;5057413;28;20486;-58
2021/03/30 14:58:17;;;;;;;3.00;1.98;;;;;;;;;;5056788;28;20650;-58
2021/03/30 15:05:38;;;;;;;8.43;2.50;;;;;;;;;;5056104;28;20147;-59
2021/03/30 15:08:04;;;;;;;2.95;2.30;;;;;;;;;;5060822;28;20028;-58
2021/03/30 15:10:32;;;;;;;5.40;3.05;;;;;;;;;;5057843;28;20127;-58
2021/03/30 15:12:58;;;;;;;4.53;1.92;;;;;;;;;;5057531;28;20098;-58
2021/03/30 15:15:32;;;;;;;6.72;2.70;;;;;;;;;;5054923;28;20755;-58